American Glory — WDA8860 — position and weather

sailwx.info

Track history (hours):
 
Tides and Currents Weather Stations Pressure Air Temp Water Temp Dewpoint Dewpoint Depression Visibility Wind Speed Wind Dir Waves Ship Positions

American Glory

Owner: AMERICAN CRUISE LINES INC, DELMAR, DE. More information available from US FCC via Universal Licensing System and Coast Guard Vessel Documentation Center.

Last reported at 2015-May-04 22:06 UTC. Time now 2015-May-04 23:08 UTC.
Position N 38°51' W 076°26'.

Length 54 m; draft 2.1 m.

Type: Passenger vessel. MMSI: 366858820.

Date/timePositionNaut miles runAvg speedWind from/ knotsBaromVisibWave heightAir tempDewpointWater temp
2015-May-04 22:06N 38°51' W 076°26'8 0.8
2015-May-04 12:33N 38°59' W 076°28'5 4.8
2015-May-04 11:27N 38°54' W 076°25'7 6.2
2015-May-04 10:20N 38°52' W 076°17'5 6.3
2015-May-04 09:33N 38°48' W 076°12'1 0.9
2015-May-04 08:32N 38°47' W 076°13'0 0.0
2015-May-04 07:23N 38°47' W 076°13'0 0.0
2015-May-04 05:32N 38°47' W 076°13'0 0.0
2015-May-04 04:32N 38°47' W 076°13'0 0.0
2015-May-04 03:32N 38°47' W 076°13'0 0.0
2015-May-03 12:14N 38°47' W 076°13'0 0.0
2015-May-03 07:32N 38°47' W 076°13'0 0.0
2015-May-03 06:20N 38°47' W 076°13'33 2.6
2015-May-02 17:33N 39°16' W 076°35'2 0.2
2015-May-02 03:31N 39°17' W 076°37'0 0.0
2015-May-02 01:31N 39°17' W 076°37'0 0.0
2015-May-01 21:19N 39°17' W 076°37'0 0.0
2015-May-01 19:19N 39°17' W 076°37'0 0.0
2015-May-01 10:33N 39°17' W 076°37'28 6.9
2015-May-01 06:26N 38°50' W 076°26'  
2015-Apr-29 00:16N 34°58' W 076°41'5 6.1
2015-Apr-28 23:32N 34°54' W 076°41'8 7.9
2015-Apr-28 22:33N 34°46' W 076°41'3 3.0
2015-Apr-28 21:32N 34°43' W 076°42'0 0.0
2015-Apr-28 20:32N 34°43' W 076°42'0 0.0
2015-Apr-28 19:32N 34°43' W 076°42'0 0.0
2015-Apr-28 18:29N 34°43' W 076°42'0 0.0
2015-Apr-28 17:32N 34°43' W 076°42'0 0.0
2015-Apr-28 16:32N 34°43' W 076°42'0 0.0
2015-Apr-28 15:32N 34°43' W 076°42'0 0.0
2015-Apr-28 14:32N 34°43' W 076°42'0 0.0
2015-Apr-28 13:32N 34°43' W 076°42'0 0.0
2015-Apr-28 12:32N 34°43' W 076°42'0 0.2
2015-Apr-28 11:33N 34°43' W 076°42'8 7.8
2015-Apr-28 10:33N 34°43' W 076°52'8 7.5
2015-Apr-28 09:28N 34°41' W 077°01'  
Track history (hours):
 
Tides and Currents Weather Stations Pressure Air Temp Water Temp Dewpoint Dewpoint Depression Visibility Wind Speed Wind Dir Waves Ship Positions

American Glory

Owner: AMERICAN CRUISE LINES INC, DELMAR, DE. More information available from US FCC via Universal Licensing System and Coast Guard Vessel Documentation Center.

Last reported at 2015-May-04 22:06 UTC. Time now 2015-May-04 23:08 UTC.
Position N 38°51' W 076°26'.

Length 54 m; draft 2.1 m.

Type: Passenger vessel. MMSI: 366858820.

Date/timePositionNaut miles runAvg speedWind from/ knotsBaromVisibWave heightAir tempDewpointWater temp
2015-May-04 22:06N 38°51' W 076°26'8 0.8
2015-May-04 12:33N 38°59' W 076°28'5 4.8
2015-May-04 11:27N 38°54' W 076°25'7 6.2
2015-May-04 10:20N 38°52' W 076°17'5 6.3
2015-May-04 09:33N 38°48' W 076°12'1 0.9
2015-May-04 08:32N 38°47' W 076°13'0 0.0
2015-May-04 07:23N 38°47' W 076°13'0 0.0
2015-May-04 05:32N 38°47' W 076°13'0 0.0
2015-May-04 04:32N 38°47' W 076°13'0 0.0
2015-May-04 03:32N 38°47' W 076°13'0 0.0
2015-May-03 12:14N 38°47' W 076°13'0 0.0
2015-May-03 07:32N 38°47' W 076°13'0 0.0
2015-May-03 06:20N 38°47' W 076°13'33 2.6
2015-May-02 17:33N 39°16' W 076°35'2 0.2
2015-May-02 03:31N 39°17' W 076°37'0 0.0
2015-May-02 01:31N 39°17' W 076°37'0 0.0
2015-May-01 21:19N 39°17' W 076°37'0 0.0
2015-May-01 19:19N 39°17' W 076°37'0 0.0
2015-May-01 10:33N 39°17' W 076°37'28 6.9
2015-May-01 06:26N 38°50' W 076°26'  
2015-Apr-29 00:16N 34°58' W 076°41'5 6.1
2015-Apr-28 23:32N 34°54' W 076°41'8 7.9
2015-Apr-28 22:33N 34°46' W 076°41'3 3.0
2015-Apr-28 21:32N 34°43' W 076°42'0 0.0
2015-Apr-28 20:32N 34°43' W 076°42'0 0.0
2015-Apr-28 19:32N 34°43' W 076°42'0 0.0
2015-Apr-28 18:29N 34°43' W 076°42'0 0.0
2015-Apr-28 17:32N 34°43' W 076°42'0 0.0
2015-Apr-28 16:32N 34°43' W 076°42'0 0.0
2015-Apr-28 15:32N 34°43' W 076°42'0 0.0
2015-Apr-28 14:32N 34°43' W 076°42'0 0.0
2015-Apr-28 13:32N 34°43' W 076°42'0 0.0
2015-Apr-28 12:32N 34°43' W 076°42'0 0.2
2015-Apr-28 11:33N 34°43' W 076°42'8 7.8
2015-Apr-28 10:33N 34°43' W 076°52'8 7.5
2015-Apr-28 09:28N 34°41' W 077°01'  

Dump ship's entire track history